Time;durP1;ratioP1;P1;durP2;ratioP2;P2;SDS_P1;SDS_P2;PMS_P1;PMS_P2;Temp;Humidity;BMP_temperature;BMP_pressure;BME280_temperature;BME280_humidity;BME280_pressure;Samples;Min_cycle;Max_cycle;Signal;HPM_P1;HPM_P2
2022/12/15 00:40:57;;;;;;;41.63;26.43;;;-10.30;99.90;;;;;;5020387;28;20539;-51
2022/12/15 00:43:24;;;;;;;41.07;27.67;;;-10.20;99.90;;;;;;5029600;28;21506;-51
2022/12/15 00:48:38;;;;;;;48.07;28.30;;;-10.40;99.90;;;;;;5011518;28;20447;-50
2022/12/15 00:51:03;;;;;;;35.50;25.60;;;-10.50;99.90;;;;;;5029058;28;20517;-51
2022/12/15 01:20:56;;;;;;;42.00;26.60;;;-10.60;99.90;;;;;;5025271;28;20827;-50
2022/12/15 01:23:23;;;;;;;40.77;26.80;;;-10.70;99.90;;;;;;5031003;28;20466;-51
2022/12/15 01:25:50;;;;;;;44.40;28.13;;;-10.70;99.90;;;;;;5025831;28;20518;-51
2022/12/15 01:28:18;;;;;;;42.80;27.77;;;-10.70;99.90;;;;;;5031698;28;20492;-51
2022/12/15 01:30:45;;;;;;;43.20;27.00;;;-10.70;99.90;;;;;;5021840;28;20490;-51
2022/12/15 01:33:12;;;;;;;35.57;26.50;;;-10.70;99.90;;;;;;5021993;28;20470;-51
2022/12/15 01:35:38;;;;;;;44.20;27.60;;;-10.70;99.90;;;;;;5028982;28;20545;-51
2022/12/15 01:38:05;;;;;;;38.27;24.73;;;-10.80;99.90;;;;;;5032795;28;20532;-51
2022/12/15 01:40:48;;;;;;;42.03;26.90;;;-10.80;99.90;;;;;;5027202;28;20494;-51
2022/12/15 01:43:18;;;;;;;41.83;27.97;;;-10.80;99.90;;;;;;5024152;28;20464;-51
2022/12/15 01:45:53;;;;;;;38.17;25.90;;;-10.80;99.90;;;;;;5027895;28;20527;-50
2022/12/15 01:48:28;;;;;;;41.47;28.17;;;-10.80;99.90;;;;;;5024210;28;21057;-51
2022/12/15 01:51:00;;;;;;;44.27;29.17;;;-10.90;99.90;;;;;;5028047;28;20462;-51
2022/12/15 01:53:27;;;;;;;43.67;28.03;;;-10.90;99.90;;;;;;5029510;28;20486;-51
2022/12/15 01:55:54;;;;;;;46.57;27.27;;;-10.90;99.90;;;;;;5028049;28;20514;-50
2022/12/15 01:58:23;;;;;;;45.30;29.40;;;-10.90;99.90;;;;;;5030182;28;20964;-50
2022/12/15 02:00:49;;;;;;;47.63;29.60;;;-10.90;99.90;;;;;;5025199;28;20557;-54
2022/12/15 02:03:16;;;;;;;41.67;30.67;;;-10.90;99.90;;;;;;5023334;28;20474;-50
2022/12/15 02:05:43;;;;;;;44.83;29.20;;;-10.90;99.90;;;;;;5021905;28;20512;-50
2022/12/15 02:08:10;;;;;;;49.53;28.97;;;-11.00;99.90;;;;;;5023984;28;20488;-50
2022/12/15 02:10:49;;;;;;;46.27;28.13;;;-11.00;99.90;;;;;;5026439;28;20474;-50
2022/12/15 02:13:20;;;;;;;42.97;27.30;;;-11.00;99.90;;;;;;5027744;28;20542;-49
2022/12/15 02:15:51;;;;;;;42.93;27.67;;;-11.10;99.90;;;;;;5027028;28;21043;-51
2022/12/15 02:18:22;;;;;;;42.70;27.97;;;-11.00;99.90;;;;;;5026330;28;20459;-50
2022/12/15 02:20:56;;;;;;;44.97;28.40;;;-10.90;99.90;;;;;;5026214;28;20490;-51
2022/12/15 02:23:56;;;;;;;47.13;28.80;;;-10.90;99.90;;;;;;5023368;28;20521;-50
2022/12/15 02:27:10;;;;;;;45.37;26.60;;;-10.90;99.90;;;;;;5030452;28;20522;-51
2022/12/15 02:30:19;;;;;;;48.23;29.77;;;-10.90;99.90;;;;;;5030372;28;20494;-50
2022/12/15 02:32:58;;;;;;;45.17;30.10;;;-11.00;99.90;;;;;;5007187;28;20459;-50
2022/12/15 02:35:28;;;;;;;46.07;28.97;;;-11.00;99.90;;;;;;5024809;28;20533;-50
2022/12/15 02:37:55;;;;;;;41.70;27.80;;;-10.90;99.90;;;;;;5026597;28;20491;-51
2022/12/15 02:40:22;;;;;;;44.83;30.17;;;-11.00;99.90;;;;;;5028615;28;20491;-50
2022/12/15 02:42:51;;;;;;;42.20;28.13;;;-10.90;99.90;;;;;;5032658;28;20583;-50
2022/12/15 02:45:22;;;;;;;45.27;28.30;;;-10.90;99.90;;;;;;5029483;28;20526;-50
2022/12/15 02:48:00;;;;;;;38.57;27.23;;;-10.90;99.90;;;;;;5013151;28;20474;-51
2022/12/15 02:50:48;;;;;;;44.20;28.17;;;-10.90;99.90;;;;;;5024500;28;20482;-50
2022/12/15 02:53:30;;;;;;;43.33;27.50;;;-10.80;99.90;;;;;;5031472;28;20520;-50
2022/12/15 02:56:05;;;;;;;50.50;29.80;;;-10.80;99.90;;;;;;5030574;28;20466;-54
2022/12/15 02:58:39;;;;;;;40.97;27.57;;;-10.60;99.90;;;;;;5021593;28;20999;-54
2022/12/15 03:01:11;;;;;;;45.53;29.27;;;-10.40;99.90;;;;;;5021570;28;20545;-54
2022/12/15 03:03:40;;;;;;;49.17;28.63;;;-10.30;99.90;;;;;;5020041;28;20559;-54
2022/12/15 03:06:08;;;;;;;43.27;27.73;;;-10.20;99.90;;;;;;5031544;28;20573;-54
2022/12/15 03:08:35;;;;;;;50.10;30.47;;;-9.90;99.90;;;;;;5023423;28;20550;-54
2022/12/15 03:11:02;;;;;;;38.63;27.30;;;-9.90;99.90;;;;;;5029356;28;20467;-54
2022/12/15 03:13:28;;;;;;;46.20;28.73;;;-9.80;99.90;;;;;;5028449;28;20893;-54
2022/12/15 03:15:57;;;;;;;42.90;28.67;;;-9.80;99.90;;;;;;5019582;28;20523;-54
2022/12/15 03:18:23;;;;;;;56.33;33.67;;;-9.70;99.90;;;;;;5027346;28;20880;-54
2022/12/15 03:20:52;;;;;;;46.43;29.27;;;-9.60;99.90;;;;;;5031606;28;20885;-54
2022/12/15 03:23:21;;;;;;;48.20;32.10;;;-9.40;99.90;;;;;;5016898;28;20955;-54
2022/12/15 03:25:49;;;;;;;48.40;30.93;;;-9.30;99.90;;;;;;5033159;28;20573;-54
2022/12/15 03:28:15;;;;;;;48.50;30.70;;;-9.30;99.90;;;;;;5030428;28;20529;-53
2022/12/15 03:30:42;;;;;;;45.43;30.27;;;-9.20;99.90;;;;;;5027937;28;20598;-53
2022/12/15 03:33:08;;;;;;;45.47;29.87;;;-9.10;99.90;;;;;;5022552;28;20463;-55
2022/12/15 03:35:35;;;;;;;62.70;35.07;;;-9.10;99.90;;;;;;5026539;28;20561;-54
2022/12/15 03:38:03;;;;;;;79.67;38.17;;;-8.90;99.90;;;;;;5021789;28;20546;-54
2022/12/15 03:40:29;;;;;;;67.80;36.63;;;-8.70;99.90;;;;;;5022368;28;20546;-53
2022/12/15 03:42:57;;;;;;;66.37;36.90;;;-8.60;99.90;;;;;;5021968;28;20489;-54
2022/12/15 03:45:25;;;;;;;63.47;36.70;;;-8.50;95.50;;;;;;5037270;28;21339;-55
2022/12/15 03:47:53;;;;;;;61.63;31.93;;;-8.40;90.00;;;;;;5028133;28;20594;-54
2022/12/15 03:50:22;;;;;;;63.00;35.40;;;-8.40;87.80;;;;;;5018583;28;20464;-54
2022/12/15 03:52:51;;;;;;;58.70;33.63;;;-8.40;83.70;;;;;;5020737;28;20546;-54
2022/12/15 03:55:19;;;;;;;72.47;34.80;;;-8.30;78.30;;;;;;5024907;28;20514;-55
2022/12/15 03:57:46;;;;;;;70.37;36.97;;;-8.30;73.40;;;;;;5023805;28;20465;-55
2022/12/15 04:00:14;;;;;;;67.73;35.77;;;-8.20;70.00;;;;;;5026138;28;20541;-56
2022/12/15 04:02:41;;;;;;;73.53;37.27;;;-8.30;72.00;;;;;;5032318;28;20831;-55
2022/12/15 04:05:08;;;;;;;68.20;35.40;;;-8.30;69.20;;;;;;5016140;28;20522;-54
2022/12/15 04:07:35;;;;;;;72.13;34.70;;;-8.30;66.20;;;;;;5012787;28;20476;-55
2022/12/15 04:10:01;;;;;;;60.90;33.97;;;-8.30;65.70;;;;;;5031560;28;20537;-54
2022/12/15 04:12:29;;;;;;;57.00;33.77;;;-8.30;64.00;;;;;;5012341;28;20907;-55
2022/12/15 04:14:56;;;;;;;62.77;32.17;;;-8.30;64.50;;;;;;5022236;28;20973;-54
2022/12/15 04:17:22;;;;;;;59.13;29.60;;;-8.30;63.50;;;;;;5026137;28;20530;-54
2022/12/15 04:22:40;;;;;;;51.03;29.10;;;-8.40;63.20;;;;;;5007645;28;20452;-55
2022/12/15 05:33:54;;;;;;;43.03;27.13;;;-8.20;80.20;;;;;;5023714;28;20493;-54
2022/12/15 05:36:20;;;;;;;44.73;27.63;;;-8.20;78.50;;;;;;5033465;28;20458;-55
2022/12/15 05:38:48;;;;;;;43.30;28.30;;;-8.20;75.40;;;;;;5032744;28;20533;-54
2022/12/15 05:41:15;;;;;;;42.67;27.80;;;-8.10;73.70;;;;;;5028973;28;20826;-54
2022/12/15 05:43:41;;;;;;;40.23;27.33;;;-8.10;72.80;;;;;;5024682;28;20834;-53
2022/12/15 05:46:08;;;;;;;44.70;28.50;;;-8.10;73.60;;;;;;5030578;28;20540;-54
2022/12/15 05:48:35;;;;;;;43.17;28.33;;;-8.10;76.30;;;;;;5027012;28;20950;-56
2022/12/15 05:51:04;;;;;;;41.80;28.23;;;-8.20;76.70;;;;;;5021646;28;20550;-55
2022/12/15 05:53:31;;;;;;;40.47;29.37;;;-8.10;74.50;;;;;;5019486;28;20541;-55
2022/12/15 05:56:01;;;;;;;39.77;26.97;;;-8.10;73.10;;;;;;5024533;28;20566;-55
2022/12/15 05:58:28;;;;;;;38.03;27.37;;;-8.10;73.80;;;;;;5036308;28;20865;-54
2022/12/15 06:00:54;;;;;;;44.80;30.30;;;-8.20;80.20;;;;;;5030310;28;20549;-54
2022/12/15 06:03:21;;;;;;;44.87;31.03;;;-8.10;80.40;;;;;;5032212;28;20487;-53
2022/12/15 06:05:47;;;;;;;45.93;29.73;;;-8.40;85.00;;;;;;5030888;28;20577;-54
2022/12/15 06:08:15;;;;;;;46.70;30.37;;;-8.20;82.20;;;;;;5031366;28;21020;-55
2022/12/15 06:10:41;;;;;;;49.27;29.57;;;-8.30;86.90;;;;;;5021207;28;20554;-54
2022/12/15 06:13:08;;;;;;;56.10;32.97;;;-8.40;90.80;;;;;;5029828;28;20495;-54
2022/12/15 06:15:34;;;;;;;52.90;32.80;;;-8.50;89.80;;;;;;5029295;28;20518;-54
2022/12/15 06:18:01;;;;;;;50.57;30.63;;;-8.50;88.50;;;;;;5032532;28;20539;-53
2022/12/15 06:20:27;;;;;;;51.77;31.80;;;-8.50;87.80;;;;;;5033504;28;20482;-54
2022/12/15 06:22:54;;;;;;;56.60;32.43;;;-8.60;92.10;;;;;;5020222;28;21249;-55
2022/12/15 06:25:22;;;;;;;57.83;34.50;;;-8.60;91.80;;;;;;5020560;28;20486;-54
2022/12/15 06:27:48;;;;;;;56.10;32.83;;;-8.60;88.70;;;;;;5032885;28;20569;-56
2022/12/15 06:30:15;;;;;;;51.83;31.73;;;-8.70;87.10;;;;;;5024513;28;20491;-55
2022/12/15 06:32:41;;;;;;;52.40;32.47;;;-8.70;84.40;;;;;;5031561;28;20541;-55
2022/12/15 06:35:08;;;;;;;53.73;31.90;;;-8.70;85.70;;;;;;5032524;28;20557;-54
2022/12/15 06:37:35;;;;;;;50.23;30.93;;;-8.70;84.20;;;;;;5016790;28;20538;-55
2022/12/15 06:40:01;;;;;;;46.70;29.30;;;-8.70;83.50;;;;;;5024409;28;20900;-55
2022/12/15 06:42:29;;;;;;;53.33;32.33;;;-8.70;83.60;;;;;;5031609;28;20996;-54
2022/12/15 06:44:56;;;;;;;50.73;30.10;;;-8.70;84.60;;;;;;5027719;28;21057;-54
2022/12/15 06:47:22;;;;;;;45.30;29.37;;;-8.70;85.70;;;;;;5034085;28;20561;-53
2022/12/15 06:49:49;;;;;;;43.30;29.47;;;-8.70;86.60;;;;;;5022960;28;20550;-55
2022/12/15 06:52:16;;;;;;;47.43;29.87;;;-8.70;96.20;;;;;;5021543;28;20763;-54
2022/12/15 06:54:42;;;;;;;45.83;28.40;;;-8.60;99.40;;;;;;5030331;28;20556;-55
2022/12/15 06:57:09;;;;;;;42.20;29.10;;;-8.50;99.90;;;;;;5032162;28;20880;-53
2022/12/15 06:59:36;;;;;;;43.23;28.40;;;-8.50;99.90;;;;;;5030180;28;20550;-54
2022/12/15 07:02:03;;;;;;;39.77;27.33;;;-8.50;99.90;;;;;;5022162;28;20563;-53
2022/12/15 07:04:32;;;;;;;42.77;28.23;;;-8.70;99.90;;;;;;5019282;28;20920;-53
2022/12/15 07:06:58;;;;;;;45.03;29.10;;;-8.80;99.90;;;;;;5017349;28;20479;-53
2022/12/15 07:09:26;;;;;;;41.10;28.60;;;-8.90;99.90;;;;;;5027623;28;20495;-55
2022/12/15 07:11:53;;;;;;;44.57;26.77;;;-8.90;99.90;;;;;;5031751;28;20446;-55
2022/12/15 07:14:21;;;;;;;43.50;26.70;;;-8.90;99.90;;;;;;5021684;28;20581;-55
2022/12/15 07:16:49;;;;;;;39.57;27.57;;;-8.90;99.90;;;;;;5020943;28;20462;-55
2022/12/15 07:19:15;;;;;;;41.37;26.40;;;-9.00;99.90;;;;;;5025011;28;20459;-55
2022/12/15 07:21:42;;;;;;;39.57;26.80;;;-9.00;99.90;;;;;;5024452;28;20839;-55
2022/12/15 07:24:11;;;;;;;46.70;30.57;;;-9.00;98.70;;;;;;5020508;28;20538;-54
2022/12/15 07:26:37;;;;;;;47.63;31.67;;;-9.00;98.50;;;;;;5009308;28;20474;-54
2022/12/15 07:29:04;;;;;;;44.63;28.90;;;-9.10;97.40;;;;;;5018131;28;20466;-55
2022/12/15 07:31:31;;;;;;;44.88;28.02;;;-9.10;96.40;;;;;;5016658;28;20595;-54
2022/12/15 07:33:59;;;;;;;39.17;26.67;;;-9.10;98.60;;;;;;5016381;28;20315;-53
2022/12/15 07:36:26;;;;;;;39.53;26.90;;;-9.10;99.40;;;;;;5018824;28;20549;-54
2022/12/15 07:38:57;;;;;;;41.50;27.63;;;-9.00;99.90;;;;;;5029510;28;20528;-54
2022/12/15 07:41:24;;;;;;;41.73;27.03;;;-9.00;99.90;;;;;;5023977;28;20909;-54
2022/12/15 07:43:50;;;;;;;40.60;26.20;;;-8.90;99.90;;;;;;5013571;28;21039;-54
2022/12/15 07:46:17;;;;;;;40.27;26.97;;;-8.90;99.90;;;;;;5016136;28;20567;-54
2022/12/15 07:48:43;;;;;;;38.23;26.30;;;-8.90;99.90;;;;;;5019531;28;20471;-54
2022/12/15 07:51:11;;;;;;;38.13;26.50;;;-8.80;99.90;;;;;;5018142;28;20912;-50
2022/12/15 07:53:38;;;;;;;42.37;26.40;;;-8.80;99.90;;;;;;5024387;28;20524;-52
2022/12/15 07:56:06;;;;;;;37.13;26.23;;;-8.80;99.90;;;;;;5023270;28;20878;-50
2022/12/15 07:58:33;;;;;;;40.43;25.93;;;-8.70;99.90;;;;;;5019891;28;20467;-51
2022/12/15 08:01:01;;;;;;;41.80;28.13;;;-8.70;99.90;;;;;;5027301;28;20529;-51
2022/12/15 08:03:29;;;;;;;39.10;25.97;;;-8.70;99.90;;;;;;5021057;28;20474;-51
2022/12/15 08:05:55;;;;;;;41.50;27.43;;;-8.70;99.90;;;;;;5012493;28;20515;-51
2022/12/15 08:08:23;;;;;;;47.47;29.43;;;-8.70;99.90;;;;;;5015369;28;21087;-51
2022/12/15 08:10:50;;;;;;;58.37;27.97;;;-8.80;99.90;;;;;;5021103;28;20968;-51
2022/12/15 08:13:17;;;;;;;49.20;28.60;;;-8.80;99.90;;;;;;5022770;28;20971;-51
2022/12/15 08:15:43;;;;;;;41.43;26.67;;;-8.70;99.90;;;;;;5026898;28;21027;-50
2022/12/15 08:18:10;;;;;;;39.40;26.60;;;-8.40;99.90;;;;;;5021617;28;20545;-51
2022/12/15 08:20:36;;;;;;;42.13;27.53;;;-8.30;99.90;;;;;;5022892;28;20573;-50
2022/12/15 08:23:03;;;;;;;40.33;27.53;;;-8.20;99.90;;;;;;5019535;28;20460;-51
2022/12/15 08:25:31;;;;;;;39.00;26.07;;;-8.10;99.90;;;;;;5024566;28;20569;-51
2022/12/15 08:27:58;;;;;;;42.33;27.90;;;-8.00;99.90;;;;;;5027418;28;21015;-51
2022/12/15 08:30:24;;;;;;;42.13;27.10;;;-7.90;99.90;;;;;;5030171;28;20486;-51
2022/12/15 08:32:51;;;;;;;38.30;27.73;;;-7.80;99.90;;;;;;5019803;28;20466;-51
2022/12/15 08:35:18;;;;;;;42.40;28.23;;;-7.70;99.90;;;;;;5025056;28;20565;-51
2022/12/15 08:37:45;;;;;;;41.90;28.30;;;-7.50;99.90;;;;;;5016831;28;21080;-50
2022/12/15 08:40:12;;;;;;;41.60;27.00;;;-7.30;99.90;;;;;;5020432;28;20463;-51
2022/12/15 08:42:40;;;;;;;45.07;28.47;;;-7.10;99.90;;;;;;5037263;28;20498;-51
2022/12/15 08:45:08;;;;;;;41.20;28.03;;;-7.00;99.90;;;;;;5020656;28;20515;-51
2022/12/15 08:47:34;;;;;;;39.40;26.07;;;-6.90;99.90;;;;;;5015860;28;20574;-51
2022/12/15 08:50:01;;;;;;;41.93;27.90;;;-6.80;99.90;;;;;;5024518;28;20587;-51
2022/12/15 08:52:28;;;;;;;42.37;27.10;;;-6.90;99.90;;;;;;5022642;28;20509;-51
2022/12/15 08:54:54;;;;;;;37.60;26.23;;;-6.80;99.90;;;;;;5026290;28;20476;-50
2022/12/15 08:57:21;;;;;;;42.63;27.57;;;-6.70;99.90;;;;;;5020728;28;20541;-51
2022/12/15 08:59:48;;;;;;;39.70;26.53;;;-6.60;99.90;;;;;;5028728;28;20550;-50
2022/12/15 09:02:15;;;;;;;37.17;25.90;;;-6.50;99.90;;;;;;5020989;28;20563;-52
2022/12/15 09:04:42;;;;;;;35.67;25.10;;;-6.40;99.90;;;;;;5026269;28;20587;-51
2022/12/15 09:07:09;;;;;;;37.33;25.97;;;-6.20;99.90;;;;;;5025244;28;20486;-50
2022/12/15 09:09:36;;;;;;;37.30;25.97;;;-5.80;99.90;;;;;;5021683;28;20550;-50
2022/12/15 09:12:02;;;;;;;38.60;26.17;;;-6.00;99.90;;;;;;5022886;28;20545;-50
2022/12/15 09:14:29;;;;;;;32.33;22.30;;;-5.90;99.90;;;;;;5025499;28;20601;-50
2022/12/15 09:16:57;;;;;;;35.83;25.10;;;-5.70;99.90;;;;;;5025565;28;20455;-51
2022/12/15 09:19:24;;;;;;;31.30;23.20;;;-5.70;99.90;;;;;;5029549;28;20558;-51
2022/12/15 09:21:50;;;;;;;34.83;24.00;;;-5.80;99.90;;;;;;5019901;28;20466;-50
2022/12/15 09:24:17;;;;;;;32.97;24.37;;;-5.80;99.90;;;;;;5023501;28;20573;-50
2022/12/15 09:26:45;;;;;;;31.97;23.80;;;-5.80;99.90;;;;;;5019689;28;20463;-52
2022/12/15 09:29:13;;;;;;;35.47;24.23;;;-5.70;99.90;;;;;;5014590;28;20489;-51
2022/12/15 09:31:43;;;;;;;35.37;25.23;;;-5.60;99.90;;;;;;5022026;28;20837;-52
2022/12/15 09:34:14;;;;;;;35.73;24.97;;;-5.60;99.90;;;;;;5018033;28;20486;-52
2022/12/15 09:36:41;;;;;;;36.90;23.70;;;-5.70;99.90;;;;;;5018028;28;20462;-49
2022/12/15 09:39:10;;;;;;;35.97;24.03;;;-5.60;99.90;;;;;;5024487;28;20557;-50
2022/12/15 09:41:38;;;;;;;36.00;23.90;;;-5.30;99.90;;;;;;5022870;28;20552;-52
2022/12/15 09:44:10;;;;;;;36.13;24.50;;;-4.90;99.90;;;;;;5020889;28;20571;-51
2022/12/15 09:46:48;;;;;;;35.73;23.80;;;-4.60;99.90;;;;;;5022721;28;20554;-51
2022/12/15 09:49:23;;;;;;;31.37;23.87;;;-4.40;99.90;;;;;;5026332;28;20487;-50
2022/12/15 09:51:54;;;;;;;35.30;24.03;;;-4.50;99.90;;;;;;5022450;28;20981;-52
2022/12/15 09:54:22;;;;;;;33.87;22.53;;;-4.60;99.90;;;;;;5018437;28;21107;-51
2022/12/15 09:56:55;;;;;;;35.90;24.60;;;-4.70;99.90;;;;;;5016714;28;20547;-52
2022/12/15 09:59:31;;;;;;;41.73;24.23;;;-4.70;99.90;;;;;;5025563;28;20462;-50
2022/12/15 10:02:12;;;;;;;34.70;25.10;;;-4.80;99.90;;;;;;5014814;28;20550;-50
2022/12/15 10:04:51;;;;;;;36.33;24.13;;;-4.80;99.90;;;;;;5018506;28;20621;-51
2022/12/15 10:07:24;;;;;;;37.83;24.10;;;-4.70;99.90;;;;;;5020541;28;20525;-52
2022/12/15 10:09:50;;;;;;;32.43;23.40;;;-4.70;99.90;;;;;;5032179;28;20960;-50
2022/12/15 10:12:23;;;;;;;36.30;24.10;;;-4.70;99.90;;;;;;5032456;28;20494;-50
2022/12/15 10:14:53;;;;;;;30.43;23.40;;;-4.60;99.90;;;;;;5030375;28;20575;-51
2022/12/15 10:17:23;;;;;;;34.40;23.97;;;-4.50;99.90;;;;;;5020816;28;20551;-51
2022/12/15 10:19:58;;;;;;;31.87;23.57;;;-4.50;99.90;;;;;;5018111;28;20558;-50
2022/12/15 10:22:30;;;;;;;30.67;23.50;;;-4.30;99.90;;;;;;5019029;28;20554;-51
2022/12/15 10:24:59;;;;;;;34.57;23.90;;;-4.10;99.90;;;;;;5020326;28;20479;-52
2022/12/15 10:27:36;;;;;;;34.27;21.87;;;-3.80;99.90;;;;;;5020400;28;20574;-50
2022/12/15 10:30:05;;;;;;;32.57;23.00;;;-3.70;99.90;;;;;;5023819;28;20485;-50
2022/12/15 10:32:43;;;;;;;29.90;21.93;;;-3.70;99.90;;;;;;5021089;28;20486;-51
2022/12/15 10:35:16;;;;;;;34.30;23.70;;;-3.80;99.90;;;;;;5023373;28;20540;-50
2022/12/15 10:37:42;;;;;;;34.70;22.77;;;-3.60;99.90;;;;;;5023319;28;20562;-51
2022/12/15 10:40:16;;;;;;;32.70;21.23;;;-3.50;99.90;;;;;;5026464;28;20455;-50
2022/12/15 10:42:48;;;;;;;34.80;21.70;;;-3.50;99.90;;;;;;5020728;28;20561;-51
2022/12/15 10:45:32;;;;;;;31.87;20.83;;;-3.30;99.90;;;;;;5018620;28;20619;-51
2022/12/15 10:48:01;;;;;;;30.73;21.87;;;-3.30;99.90;;;;;;5019046;28;20577;-50
2022/12/15 10:50:29;;;;;;;33.40;23.10;;;-3.20;99.90;;;;;;5021485;28;20474;-50
2022/12/15 10:52:56;;;;;;;31.60;23.40;;;-3.40;99.90;;;;;;5022537;28;20459;-52
2022/12/15 10:55:35;;;;;;;31.60;22.73;;;-3.60;99.90;;;;;;5014535;28;21149;-50
2022/12/15 10:58:03;;;;;;;50.30;24.50;;;-3.60;99.90;;;;;;5020852;28;20450;-51
2022/12/15 11:00:32;;;;;;;32.77;22.10;;;-3.50;99.90;;;;;;5018255;28;20552;-51
2022/12/15 11:02:59;;;;;;;33.37;22.97;;;-3.50;99.90;;;;;;5023960;28;20615;-50
2022/12/15 11:05:27;;;;;;;35.23;23.17;;;-3.50;99.90;;;;;;5017809;28;20567;-50
2022/12/15 11:07:59;;;;;;;25.93;20.03;;;-3.50;99.90;;;;;;5023788;28;20582;-52
2022/12/15 11:12:50;;;;;;;33.80;22.40;;;-3.40;99.90;;;;;;5022338;28;20497;-51
2022/12/15 11:13:15;;;;;;;33.17;22.53;;;-3.30;99.90;;;;;;5026422;28;20959;-51
2022/12/15 11:15:46;;;;;;;41.60;23.83;;;-3.30;99.90;;;;;;5024262;28;20480;-51
2022/12/15 11:18:25;;;;;;;34.20;23.67;;;-3.20;99.90;;;;;;5026656;28;20548;-51
2022/12/15 11:20:55;;;;;;;34.73;22.87;;;-3.10;99.90;;;;;;5026391;28;20508;-50
2022/12/15 11:23:30;;;;;;;30.00;21.70;;;-3.00;99.90;;;;;;5024200;28;21052;-50
2022/12/15 11:26:01;;;;;;;31.87;22.73;;;-2.90;99.90;;;;;;5012531;28;20930;-51
2022/12/15 11:28:36;;;;;;;29.43;21.43;;;-3.00;99.90;;;;;;5024886;28;20570;-50
2022/12/15 11:31:09;;;;;;;31.10;21.93;;;-3.10;99.90;;;;;;5019654;28;20976;-51
2022/12/15 11:33:36;;;;;;;33.40;24.87;;;-3.10;99.90;;;;;;5025038;28;20466;-51
2022/12/15 11:36:13;;;;;;;32.13;23.17;;;-3.30;99.90;;;;;;5023359;28;20550;-50
2022/12/15 11:38:46;;;;;;;30.97;22.40;;;-3.20;99.90;;;;;;5014117;28;20936;-50
2022/12/15 11:41:28;;;;;;;32.30;22.63;;;-3.10;99.90;;;;;;5016145;28;22329;-50
2022/12/15 11:44:18;;;;;;;31.60;22.60;;;-3.10;99.90;;;;;;5019751;28;20569;-52
2022/12/15 11:46:51;;;;;;;29.53;22.33;;;-3.10;99.90;;;;;;5015794;28;20562;-50
2022/12/15 11:50:06;;;;;;;32.07;22.70;;;-3.10;99.90;;;;;;5016227;28;21031;-51
2022/12/15 11:52:54;;;;;;;35.53;22.73;;;-3.00;99.90;;;;;;5024086;28;20927;-51
2022/12/15 11:55:30;;;;;;;32.07;22.00;;;-2.80;99.90;;;;;;5018903;28;20578;-50
2022/12/15 11:58:24;;;;;;;33.27;23.03;;;-2.80;99.90;;;;;;5024019;28;20462;-51
2022/12/15 12:01:01;;;;;;;33.47;20.90;;;-2.80;99.90;;;;;;5014844;28;20947;-50
2022/12/15 12:03:37;;;;;;;32.10;22.10;;;-2.70;99.90;;;;;;5028409;28;20559;-51
2022/12/15 12:06:11;;;;;;;30.83;20.83;;;-2.60;99.90;;;;;;5019536;28;21066;-51
2022/12/15 12:08:57;;;;;;;36.37;21.30;;;-1.70;99.90;;;;;;5017715;28;20484;-50
2022/12/15 12:11:31;;;;;;;36.37;22.30;;;-1.40;99.90;;;;;;5022024;28;20549;-51
2022/12/15 12:14:12;;;;;;;32.93;21.53;;;-1.20;99.90;;;;;;5015699;28;20571;-50
2022/12/15 12:16:46;;;;;;;29.13;21.33;;;-1.20;99.90;;;;;;5018132;28;20567;-52
2022/12/15 12:19:18;;;;;;;29.30;20.90;;;-0.90;99.90;;;;;;5022839;28;20527;-52
2022/12/15 12:21:47;;;;;;;35.03;23.00;;;-0.80;99.90;;;;;;5022578;28;20542;-52
2022/12/15 12:24:20;;;;;;;31.63;22.53;;;-0.40;99.90;;;;;;5012446;28;20480;-50
2022/12/15 12:26:53;;;;;;;30.10;21.73;;;-0.30;99.90;;;;;;5012205;28;20551;-51
2022/12/15 12:29:25;;;;;;;35.10;21.30;;;-0.50;99.90;;;;;;5025475;28;20569;-50
2022/12/15 12:32:02;;;;;;;31.33;20.33;;;-0.50;99.90;;;;;;5025363;28;20448;-51
2022/12/15 12:34:33;;;;;;;29.40;20.80;;;-0.80;99.90;;;;;;5022758;28;20462;-51
2022/12/15 12:37:13;;;;;;;29.03;20.50;;;-0.60;99.90;;;;;;5016797;28;20452;-51
2022/12/15 12:39:40;;;;;;;31.90;21.23;;;-0.50;99.90;;;;;;5027928;28;20877;-51
2022/12/15 12:42:15;;;;;;;29.27;21.43;;;-0.50;99.90;;;;;;5028424;28;20562;-50
2022/12/15 12:44:41;;;;;;;37.40;22.80;;;-0.50;99.90;;;;;;5019913;28;20509;-51
2022/12/15 12:47:13;;;;;;;31.97;22.40;;;-0.90;99.90;;;;;;5025328;28;20494;-51
2022/12/15 12:49:45;;;;;;;27.83;20.77;;;-1.00;99.90;;;;;;5024340;28;20574;-51
2022/12/15 12:52:21;;;;;;;32.53;22.73;;;-1.30;99.90;;;;;;5018877;28;20593;-51
2022/12/15 12:54:56;;;;;;;31.93;22.33;;;-1.50;99.90;;;;;;5016438;28;20493;-50
2022/12/15 12:57:34;;;;;;;34.93;23.93;;;-1.40;99.90;;;;;;5019309;28;20980;-50
2022/12/15 13:00:05;;;;;;;30.63;22.67;;;-1.00;99.90;;;;;;5021055;28;20589;-51
2022/12/15 13:03:15;;;;;;;33.00;23.73;;;-0.90;99.90;;;;;;5023554;28;20459;-50
2022/12/15 13:05:42;;;;;;;32.20;21.73;;;-0.80;99.90;;;;;;5014908;28;20486;-51
2022/12/15 13:08:47;;;;;;;32.00;22.27;;;-0.90;99.90;;;;;;5022608;28;20632;-52
2022/12/15 13:11:56;;;;;;;31.97;21.20;;;-0.90;99.90;;;;;;5018067;28;20474;-50
2022/12/15 13:14:40;;;;;;;38.30;22.53;;;-1.10;99.90;;;;;;5012093;28;22000;-50
2022/12/15 13:17:14;;;;;;;32.07;22.30;;;-1.10;99.90;;;;;;5028746;28;20493;-51
2022/12/15 13:20:05;;;;;;;28.63;21.23;;;-1.20;99.90;;;;;;5020525;28;20542;-51
2022/12/15 13:22:33;;;;;;;30.50;21.17;;;-1.30;99.90;;;;;;5024865;28;21000;-51
2022/12/15 13:25:01;;;;;;;33.40;22.17;;;-1.50;99.90;;;;;;5018403;28;20585;-50
2022/12/15 13:27:35;;;;;;;33.57;22.70;;;-1.50;99.90;;;;;;5022390;28;20569;-50
2022/12/15 13:30:15;;;;;;;32.60;21.80;;;-1.20;99.90;;;;;;5016607;28;20584;-51
2022/12/15 13:32:44;;;;;;;32.20;22.13;;;-1.00;99.90;;;;;;5017862;28;20557;-51
2022/12/15 13:35:23;;;;;;;31.53;22.67;;;-1.00;99.90;;;;;;5028998;28;20561;-51
2022/12/15 13:37:52;;;;;;;31.30;21.33;;;-1.00;99.90;;;;;;5027398;28;20567;-51
2022/12/15 13:40:49;;;;;;;32.10;21.20;;;-0.50;99.90;;;;;;5026791;28;20474;-51
2022/12/15 13:43:37;;;;;;;29.57;20.87;;;0.00;99.90;;;;;;5021032;28;20566;-52
2022/12/15 13:46:15;;;;;;;30.60;20.77;;;-0.20;99.90;;;;;;5019530;28;20546;-52
2022/12/15 13:48:45;;;;;;;34.47;21.40;;;-0.70;99.90;;;;;;5023324;28;21001;-50
2022/12/15 13:51:26;;;;;;;30.90;21.10;;;-1.10;99.90;;;;;;5023763;28;20499;-51
2022/12/15 13:53:58;;;;;;;33.03;22.10;;;-0.90;99.90;;;;;;5023230;28;21133;-52
2022/12/15 13:56:38;;;;;;;34.03;22.77;;;-0.40;99.90;;;;;;5020954;28;20460;-52
2022/12/15 13:59:14;;;;;;;31.93;21.83;;;-0.30;99.90;;;;;;5022291;28;20493;-51
2022/12/15 14:01:49;;;;;;;38.90;22.47;;;-0.60;99.90;;;;;;5014625;28;20549;-51
2022/12/15 14:04:16;;;;;;;37.60;22.53;;;-0.80;99.90;;;;;;5027183;28;20553;-51
2022/12/15 14:06:48;;;;;;;36.10;23.10;;;-1.40;99.90;;;;;;5025001;28;20578;-50
2022/12/15 14:09:19;;;;;;;30.67;21.73;;;-1.60;99.90;;;;;;5021647;28;20491;-52
2022/12/15 14:11:46;;;;;;;35.63;23.70;;;-1.90;99.90;;;;;;5022466;28;20549;-51
2022/12/15 14:14:18;;;;;;;36.80;22.27;;;-2.10;99.90;;;;;;5022849;28;20487;-50
2022/12/15 14:16:50;;;;;;;36.23;23.40;;;-2.30;99.90;;;;;;5021729;28;20532;-51
2022/12/15 14:19:18;;;;;;;34.80;22.30;;;-2.40;99.90;;;;;;5025420;28;20598;-51
2022/12/15 14:21:52;;;;;;;39.10;21.97;;;-2.60;99.90;;;;;;5026882;28;20462;-51
2022/12/15 14:24:25;;;;;;;31.43;21.90;;;-2.70;99.90;;;;;;5025621;28;20561;-51
2022/12/15 14:26:53;;;;;;;30.83;22.77;;;-2.80;99.90;;;;;;5026110;28;20542;-51
2022/12/15 14:29:19;;;;;;;41.50;24.67;;;-2.80;99.90;;;;;;5025893;28;20570;-51
2022/12/15 14:31:50;;;;;;;37.07;24.00;;;-2.90;99.90;;;;;;5027738;28;20945;-50
2022/12/15 14:34:24;;;;;;;39.27;23.77;;;-3.00;99.00;;;;;;5024016;28;20555;-50
2022/12/15 14:36:52;;;;;;;37.20;22.63;;;-3.00;97.50;;;;;;5016067;28;20591;-51
2022/12/15 14:39:24;;;;;;;30.40;21.20;;;-3.10;92.40;;;;;;5024565;28;20569;-50
2022/12/15 14:41:52;;;;;;;40.27;25.20;;;-3.10;92.80;;;;;;5023844;28;20520;-51
2022/12/15 14:44:25;;;;;;;40.30;23.50;;;-3.20;91.90;;;;;;5027104;28;20562;-51
2022/12/15 14:46:53;;;;;;;59.07;26.50;;;-3.30;90.50;;;;;;5027999;28;20495;-52
2022/12/15 14:49:23;;;;;;;37.07;21.00;;;-3.40;89.10;;;;;;5028877;28;20578;-51
2022/12/15 14:51:53;;;;;;;43.47;21.77;;;-3.50;87.00;;;;;;5013907;28;21039;-51
2022/12/15 14:54:32;;;;;;;42.03;21.10;;;-3.60;80.70;;;;;;5030003;28;20792;-51
2022/12/15 14:57:00;;;;;;;40.07;21.53;;;-3.70;77.60;;;;;;5025228;28;20467;-52
2022/12/15 14:59:33;;;;;;;45.13;22.00;;;-3.80;78.60;;;;;;5028122;28;20837;-50
2022/12/15 15:02:11;;;;;;;38.73;23.50;;;-3.80;79.30;;;;;;5029895;28;20990;-50
2022/12/15 15:04:38;;;;;;;36.23;22.67;;;-3.90;79.30;;;;;;5022950;28;20487;-51
2022/12/15 15:07:07;;;;;;;31.43;19.57;;;-4.00;79.30;;;;;;5032680;28;20549;-52